Wetterstation Rottenburg Seebronn / 442m msl / http://mut-lambrecht.de
LETZTE AKTUALISIERUNG UM: 20:25 DATUM: Januar 21 2017, time of next update: 20:30
Aktuelles WetterClear/Night Aktuelle Temperatur -9.1°C (15.6°F), Apparent temp -11.8°C
Höchsttemperatur (seit Mitternacht)-2.2°C um: 14:16 Tiefsttemperatur (seit Mitternacht)-13.2°C um: 07:18
Windgeschwindigkeit (10 Minuten )1.1 kmh (0.6 kts) Windrichtung (Dir) (10 Minuten )W (263°)
Windchill Temperatur -9.1°C Windspitzen (letzte Std)6.0 kmh (3.2 kts) um: 19:56
Windspitzen (seit Mitternacht)8.3 kmh (4.5 kts) um: 00:54 Höchstes Windmittel / Minute (seit Mitternacht)5.1 kmh (2.8 kts) um: 19:24
Regenmenge (letzte Std)0.0 mm Regenmenge (seit Mitternacht)0.0 mm (0.00 in.)---
Regenmenge diesen Monat 17.6 mm (0.69 in.) Regenmenge seit Jahresbeginn 17.6 mm (0.69 in.)
Höchste Regenmenge pro Minute (letzte Std)0.0 mm/min Höchste Regenmenge pro Stunde (letzte 6 Std)0.0 mm/stunde
Regenmenge Gestern 0.0 mm Taupunkt -13.9°C (Wet Bulb :-10.1°C )
Luftfeuchtigkeit 68 %, Humidex -13.5°C Aktueller Luftdruck (auf Meereshöhe bezogen)1024.8 hPa
Luftdrucktendenz +0.1 hPa (letzte Std) Trend (letzte 1 Std)gleichbleibend
Luftdrucktendenz (letzte 12 Std)-2.1 hPa Luftdrucktendenz (letzte 6 Std)-0.3 hPa

Wetterstations-Bericht: Grafikformat auf GIF umgestellt



Weather report/warning/Metars

Stuttgart-Echterdingen, Germany (EDDS) 48-41N 009-13E 391M
Jan 21, 2017 - 01:50 PM EST / 2017.01.21 1850 UTC
Wind: Variable at 2 MPH (2 KT):0
Visibility: greater than 7 mile(s):0
Temperature: 21 F (-6 C)
Dew Point: 17 F (-8 C)
Relative Humidity: 85%
Pressure (altimeter): 30.33 in. Hg (1027 hPa)
ob: EDDS 211850Z VRB02KT CAVOK M06/M08 Q1027 NOSIG
cycle: 19
Karlsruhe, Baden Wurttemberg, Germany (EDSB) 48-46-43N 008-04-47E
Jan 21, 2017 - 01:50 PM EST / 2017.01.21 1850 UTC
Wind: from the S (190 degrees) at 2 MPH (2 KT):0
Visibility: 3 mile(s):0
Temperature: 21 F (-6 C)
Dew Point: 19 F (-7 C)
Relative Humidity: 92%
Pressure (altimeter): 30.36 in. Hg (1028 hPa)
ob: EDSB 211850Z 19002KT 6000 NSC M06/M07 Q1028
cycle: 19
Lahr, CAN-AFB, Germany (EDTL) 48-22-09N 007-49-40E
Jan 21, 2017 - 11:50 AM EST / 2017.01.21 1650 UTC
Wind: from the N (010 degrees) at 3 MPH (3 KT):0
Visibility: 2 mile(s):0
Weather: mist
Temperature: 24 F (-4 C)
Dew Point: 19 F (-7 C)
Relative Humidity: 79%
Pressure (altimeter): 30.36 in. Hg (1028 hPa)
ob: EDTL 211650Z 01003KT 3500 BR NSC M04/M07 Q1028
cycle: 17
Laupheim, Germany (ETHL) 48-13N 009-55E 550M
Jan 21, 2017 - 01:20 PM EST / 2017.01.21 1820 UTC
Wind: from the ENE (070 degrees) at 1 MPH (1 KT):0
Visibility: less than 1 mile:0
Sky conditions: obscured
Weather: freezing fog
Temperature: 14 F (-10 C)
Dew Point: 10 F (-12 C)
Relative Humidity: 85%
Pressure (altimeter): 30.33 in. Hg (1027 hPa)
ob: ETHL 211820Z 07001KT 0100 FZFG VV000 M10/M12 Q1027 RED
cycle: 18


Klicken Sie hier, um eine Übersicht der Durchschnitts- u. Extremwerte für den Monat zu erhalten


Die Wetterdaten werden alle 30 Sek. gespeichert. Die Datenübertragung findet alle 5 Minuten statt.

Drücken Sie bitte auf "Aktualisieren" in Ihrem Browser, um die aktuellsten Daten zu erhalten.

Created by "Weather Display" software version 10.37S at this start time/date 23:14:12 18.10.2016